Maytown, Kentucky
Current Conditions -  °F | °C
As of 4:53 PM on Friday 31 Oct 2014 (Local Time) from KJKL Reporting Station
Light Rain Light Rain  
Wind Chill: 44°   Ceiling: 300
Heat Index: 44°   Visibility: 1.2mi
Dew Point: 42°   Wind: 3mph
Humidity: 93%   Direction: NA
Pressure: 29.86"   Gusts: NA
Location:  37.7524°N, 83.5047°W
Report Text: KJKL 312053Z AUTO VRB03KT 1 1/4SM -RA BR OVC003 07/06 A2986 RMK AO2 RAB08 SLP114 P0001 60001 T00670056 56007
Loading
Personal Weather Stations






























Interactive Weather Map
Tropical Storm Tracking
New forecast layout! Learn more

10-Day Weather Forecast

Advertisements
Track Severe Weather on mobile